»·PEaware :: TEXAN23 KGEG-KSEA

TEXAN23 :: KGEG-KSEA

FLIGHT INFORMATION

Flight Status: Arrived
Operator: Unknown
More flights by this operator :: More flights under this callsign
Pilot: Indie I. (23344)
Aircraft: BEECH AIRCRAFT T-6A TEXAN
(TEX2)
More flights by this aircraft type
Origin: KGEG Spokane Intl
United States
Destination: KSEA Seattle-Tacoma Intl
United States
More flights between these airports :: More routes between these airports
Route: GEG GLASR1
File this flight plan on PilotEdge
Remarks:
Altitude:
(Current/Filed)
18,000ft
Speed:
(Current/Filed)
260kts
Departed: 10-Feb-21 12:50 PM
Arrived: 10-Feb-21 01:43 PM
Distance/Time
Traveled:
194nm/0:53
Distance/Time
To Go:
Arrived

Flight Plot

Page will automatically refresh every two minutes.

Flight plan parsing failed; only flown route is shown


Map Options




Map Legend


Flown Route
Filed Route
Departure Airport
Arrival Airport
Navaid (VOR, NDB)
Fix

Horizontal Profiles

Position Reports

Time Latitude Longitude Heading Altitude Ground
Speed
10-Feb-21 12:18 47.621048 -117.528633 4 2388ft 0kts
10-Feb-21 12:19 47.621048 -117.528633 4 2388ft 0kts
10-Feb-21 12:20 47.621048 -117.528633 4 2388ft 0kts
10-Feb-21 12:21 47.621048 -117.528633 4 2388ft 0kts
10-Feb-21 12:22 47.621050 -117.528633 4 2388ft 0kts
10-Feb-21 12:23 47.621051 -117.528633 4 2388ft 0kts
10-Feb-21 12:24 47.621052 -117.528633 4 2388ft 0kts
10-Feb-21 12:25 47.621054 -117.528633 4 2388ft 0kts
10-Feb-21 12:26 47.621055 -117.528633 4 2388ft 0kts
10-Feb-21 12:27 47.621057 -117.528632 4 2388ft 0kts
10-Feb-21 12:28 47.621058 -117.528632 4 2388ft 0kts
10-Feb-21 12:29 47.621060 -117.528632 4 2388ft 0kts
10-Feb-21 12:30 47.621061 -117.528632 4 2388ft 0kts
10-Feb-21 12:31 47.621062 -117.528632 4 2388ft 0kts
10-Feb-21 12:32 47.621064 -117.528632 4 2388ft 0kts
10-Feb-21 12:33 47.621065 -117.528631 4 2388ft 0kts
10-Feb-21 12:34 47.621067 -117.528631 4 2388ft 0kts
10-Feb-21 12:35 47.621068 -117.528631 4 2388ft 0kts
10-Feb-21 12:36 47.621070 -117.528631 4 2388ft 0kts
10-Feb-21 12:37 47.621071 -117.528631 4 2388ft 0kts
10-Feb-21 12:38 47.621073 -117.528631 4 2388ft 0kts
10-Feb-21 12:39 47.621074 -117.528630 4 2388ft 0kts
10-Feb-21 12:40 47.621076 -117.528630 4 2388ft 0kts
10-Feb-21 12:41 47.621077 -117.528630 4 2388ft 0kts
10-Feb-21 12:42 47.621079 -117.528630 4 2388ft 0kts
10-Feb-21 12:43 47.621080 -117.528630 4 2388ft 0kts
10-Feb-21 12:44 47.621081 -117.528630 4 2388ft 0kts
10-Feb-21 12:46 47.622631 -117.527623 47 2388ft 20kts
10-Feb-21 12:47 47.626927 -117.521132 44 2388ft 38kts
10-Feb-21 12:48 47.630408 -117.517521 314 2388ft 0kts
10-Feb-21 12:49 47.630409 -117.517523 314 2388ft 0kts
10-Feb-21 12:50 47.623426 -117.530246 224 2474ft 128kts
10-Feb-21 12:51 47.591888 -117.576886 224 4830ft 163kts
10-Feb-21 12:52 47.578277 -117.638815 268 7665ft 169kts
10-Feb-21 12:53 47.576004 -117.710117 262 10211ft 179kts
10-Feb-21 12:54 47.574831 -117.784708 280 12510ft 188kts
10-Feb-21 12:55 47.583644 -117.860067 281 15041ft 171kts
10-Feb-21 12:56 47.591339 -117.935074 278 16862ft 188kts
10-Feb-21 12:57 47.598150 -118.017800 276 17931ft 230kts
10-Feb-21 12:58 47.604919 -118.122266 274 18045ft 275kts
10-Feb-21 12:58 47.610634 -118.219911 276 18084ft 287kts
10-Feb-21 13:00 47.621564 -118.359891 275 18065ft 295kts
10-Feb-21 13:01 47.633267 -118.480899 278 18122ft 294kts
10-Feb-21 13:01 47.644599 -118.582092 280 18040ft 298kts
10-Feb-21 13:03 47.660800 -118.723392 279 17981ft 300kts
10-Feb-21 13:03 47.672092 -118.824782 279 18081ft 296kts
10-Feb-21 13:04 47.684841 -118.946213 277 18061ft 297kts
10-Feb-21 13:06 47.699146 -119.088102 277 18089ft 297kts
10-Feb-21 13:06 47.706883 -119.189989 275 18021ft 299kts
10-Feb-21 13:07 47.711439 -119.313631 271 17894ft 302kts
10-Feb-21 13:08 47.713078 -119.436951 270 17966ft 300kts
10-Feb-21 13:09 47.723331 -119.559100 278 18027ft 298kts
10-Feb-21 13:10 47.732264 -119.681072 277 18079ft 298kts
10-Feb-21 13:11 47.747852 -119.802256 281 18003ft 301kts
10-Feb-21 13:12 47.762425 -119.923695 279 18045ft 298kts
10-Feb-21 13:13 47.776945 -120.045563 279 18044ft 298kts
10-Feb-21 13:14 47.791289 -120.167126 277 18071ft 297kts
10-Feb-21 13:15 47.801472 -120.288635 276 17862ft 280kts
10-Feb-21 13:16 47.807605 -120.395779 269 16962ft 259kts
10-Feb-21 13:17 47.807190 -120.503388 272 16126ft 268kts
10-Feb-21 13:18 47.810076 -120.621133 271 14691ft 283kts
10-Feb-21 13:19 47.809531 -120.738057 268 12412ft 290kts
10-Feb-21 13:20 47.815925 -120.847201 279 11585ft 256kts
10-Feb-21 13:21 47.824300 -120.952715 278 10298ft 254kts
10-Feb-21 13:22 47.835050 -121.060381 277 10118ft 263kts
10-Feb-21 13:23 47.845314 -121.168840 279 10002ft 258kts
10-Feb-21 13:24 47.856954 -121.277262 276 10035ft 270kts
10-Feb-21 13:25 47.866836 -121.389026 277 10092ft 272kts
10-Feb-21 13:26 47.876553 -121.501609 280 10067ft 275kts
10-Feb-21 13:27 47.886331 -121.611129 275 9882ft 237kts
10-Feb-21 13:28 47.876266 -121.697803 235 8491ft 213kts
10-Feb-21 13:29 47.837682 -121.765752 225 7020ft 220kts
10-Feb-21 13:30 47.797640 -121.831557 261 6940ft 220kts
10-Feb-21 13:31 47.794433 -121.918037 266 5469ft 200kts
10-Feb-21 13:32 47.790126 -121.998014 263 4967ft 191kts
10-Feb-21 13:33 47.786457 -122.081104 266 5093ft 233kts
10-Feb-21 13:34 47.782032 -122.181506 266 4222ft 245kts
10-Feb-21 13:35 47.766581 -122.273562 215 4001ft 236kts
10-Feb-21 13:36 47.704386 -122.302518 197 4042ft 236kts
10-Feb-21 13:37 47.639231 -122.308909 179 4090ft 232kts
10-Feb-21 13:38 47.580139 -122.307541 180 2931ft 197kts
10-Feb-21 13:39 47.526546 -122.307668 179 1821ft 187kts
10-Feb-21 13:40 47.483670 -122.307833 180 877ft 119kts
10-Feb-21 13:41 47.454231 -122.307859 180 437ft 76kts
10-Feb-21 13:42 47.445676 -122.306691 77 436ft 8kts

Navigation Log

Ident Type
Flight plan parsing failed, navigation log unavailable